Time;durP1;ratioP1;P1;durP2;ratioP2;P2;SDS_P1;SDS_P2;PMS_P1;PMS_P2;Temp;Humidity;BMP_temperature;BMP_pressure;BME280_temperature;BME280_humidity;BME280_pressure;Samples;Min_cycle;Max_cycle;Signal;HPM_P1;HPM_P2
2022/12/26 00:01:26;;;;;;;4.10;3.70;;;;;;;13.68;100.00;96418.75;5056345;28;20077;-41
2022/12/26 00:03:56;;;;;;;4.78;4.22;;;;;;;13.62;100.00;96403.50;5056577;28;20068;-41
2022/12/26 00:06:27;;;;;;;4.18;3.70;;;;;;;13.59;100.00;96404.66;5052054;28;20131;-43
2022/12/26 00:08:56;;;;;;;4.28;3.80;;;;;;;13.59;100.00;96411.78;5053650;28;20080;-48
2022/12/26 00:11:25;;;;;;;4.25;3.40;;;;;;;13.62;100.00;96416.75;5054393;28;20147;-41
2022/12/26 00:13:55;;;;;;;4.13;3.30;;;;;;;13.68;100.00;96422.22;5057715;28;20084;-44
2022/12/26 00:16:24;;;;;;;3.83;3.35;;;;;;;13.71;100.00;96421.91;5052744;28;20067;-42
2022/12/26 00:18:52;;;;;;;3.97;3.63;;;;;;;13.70;100.00;96422.09;5056715;28;20083;-44
2022/12/26 00:21:25;;;;;;;4.28;3.60;;;;;;;13.68;100.00;96408.97;5058993;28;20079;-41
2022/12/26 00:23:55;;;;;;;4.28;3.58;;;;;;;13.72;100.00;96418.25;5057637;28;20534;-42
2022/12/26 00:26:25;;;;;;;4.75;3.80;;;;;;;13.73;100.00;96419.94;5048288;28;20076;-43
2022/12/26 00:28:54;;;;;;;4.00;3.60;;;;;;;13.62;100.00;96430.00;5055093;28;20096;-46
2022/12/26 00:31:27;;;;;;;3.80;3.50;;;;;;;13.77;100.00;96428.38;5055356;28;20479;-43
2022/12/26 00:33:57;;;;;;;4.07;3.67;;;;;;;13.73;100.00;96429.69;5054649;28;20420;-43
2022/12/26 00:36:29;;;;;;;4.57;3.80;;;;;;;13.89;100.00;96434.16;5051936;28;20155;-42
2022/12/26 00:38:58;;;;;;;4.40;4.00;;;;;;;13.97;100.00;96432.34;5058945;28;20076;-41
2022/12/26 00:41:27;;;;;;;7.43;5.00;;;;;;;14.11;100.00;96430.00;5053820;28;20075;-42
2022/12/26 00:43:55;;;;;;;11.30;6.65;;;;;;;14.17;100.00;96426.69;5063106;28;20056;-42
2022/12/26 00:46:27;;;;;;;12.43;6.10;;;;;;;14.33;100.00;96426.66;5050772;28;20084;-44
2022/12/26 00:48:56;;;;;;;8.18;5.45;;;;;;;14.31;100.00;96425.16;5049519;28;20069;-43
2022/12/26 00:51:25;;;;;;;7.88;4.90;;;;;;;14.22;100.00;96433.16;5053454;28;20079;-46
2022/12/26 00:53:54;;;;;;;5.82;4.65;;;;;;;14.30;100.00;96429.66;5054886;28;20091;-43
2022/12/26 00:56:23;;;;;;;6.88;4.25;;;;;;;14.36;100.00;96426.34;5053223;28;20124;-41
2022/12/26 00:58:51;;;;;;;6.57;4.15;;;;;;;14.47;100.00;96436.56;5061759;28;20466;-45
2022/12/26 01:01:21;;;;;;;4.25;3.40;;;;;;;14.39;100.00;96438.44;5050276;28;20094;-44
2022/12/26 01:03:50;;;;;;;3.80;3.50;;;;;;;14.17;100.00;96432.00;5050651;28;20080;-43
2022/12/26 01:06:19;;;;;;;3.78;3.47;;;;;;;14.01;100.00;96430.19;5056605;28;20087;-40
2022/12/26 01:08:47;;;;;;;6.93;4.88;;;;;;;14.04;100.00;96432.53;5056429;28;20111;-41
2022/12/26 01:11:38;;;;;;;6.43;4.80;;;;;;;13.92;100.00;96441.78;5056777;28;20083;-42
2022/12/26 01:14:10;;;;;;;8.98;5.28;;;;;;;13.89;100.00;96434.16;5059810;28;20489;-45
2022/12/26 01:16:38;;;;;;;11.00;6.80;;;;;;;13.83;100.00;96435.66;5059664;28;20453;-43
2022/12/26 01:19:07;;;;;;;11.15;6.55;;;;;;;13.76;100.00;96443.44;5051313;28;20095;-42
2022/12/26 01:21:35;;;;;;;12.43;7.35;;;;;;;13.54;100.00;96450.19;5055041;28;20081;-44
2022/12/26 01:24:05;;;;;;;10.93;7.20;;;;;;;13.62;100.00;96449.38;5058289;28;20576;-47
2022/12/26 01:26:34;;;;;;;8.13;5.30;;;;;;;13.53;100.00;96456.50;5054176;28;20083;-43
2022/12/26 01:29:03;;;;;;;8.73;5.07;;;;;;;13.50;100.00;96453.34;5062008;28;20080;-40
2022/12/26 01:31:31;;;;;;;7.22;5.00;;;;;;;13.65;100.00;96453.53;5062964;28;20087;-40
2022/12/26 01:33:59;;;;;;;5.47;4.20;;;;;;;13.46;100.00;96455.50;5065270;28;20076;-39
2022/12/26 01:36:27;;;;;;;5.38;4.28;;;;;;;13.32;100.00;96460.56;5060011;28;20550;-42
2022/12/26 01:38:56;;;;;;;6.65;4.53;;;;;;;13.22;100.00;96468.66;5061257;28;20084;-42
2022/12/26 01:41:24;;;;;;;6.00;4.30;;;;;;;13.14;100.00;96468.59;5062105;28;20098;-43
2022/12/26 01:43:56;;;;;;;6.90;4.00;;;;;;;12.89;100.00;96473.81;5062539;28;20076;-39
2022/12/26 01:46:31;;;;;;;4.55;3.95;;;;;;;12.76;100.00;96476.03;5061652;28;20084;-44
2022/12/26 01:49:02;;;;;;;5.60;3.92;;;;;;;12.74;100.00;96483.34;5056365;28;20079;-45
2022/12/26 01:51:33;;;;;;;4.45;4.05;;;;;;;12.69;100.00;96481.13;5059328;28;20076;-44
2022/12/26 01:54:04;;;;;;;4.35;3.90;;;;;;;12.64;100.00;96485.25;5064343;28;20540;-47
2022/12/26 01:56:53;;;;;;;5.05;4.05;;;;;;;12.82;100.00;96467.47;5054770;28;20091;-41
2022/12/26 01:59:24;;;;;;;8.68;5.15;;;;;;;12.77;100.00;96478.56;5066919;28;20083;-41
2022/12/26 02:01:53;;;;;;;14.60;7.15;;;;;;;12.56;100.00;96480.75;5064472;28;20476;-43
2022/12/26 02:07:10;;;;;;;4.43;4.00;;;;;;;12.60;100.00;96471.53;5064781;28;20053;-42
2022/12/26 02:09:39;;;;;;;5.25;4.10;;;;;;;12.43;100.00;96480.34;5057343;28;20087;-45
2022/12/26 02:12:12;;;;;;;6.65;4.35;;;;;;;12.42;100.00;96479.53;5065259;28;20080;-42
2022/12/26 02:15:03;;;;;;;10.75;5.78;;;;;;;12.44;100.00;96476.69;5055622;28;20072;-42
2022/12/26 02:17:32;;;;;;;11.82;5.57;;;;;;;12.37;100.00;96476.50;5063516;28;20539;-45
2022/12/26 02:20:05;;;;;;;7.38;5.00;;;;;;;12.41;100.00;96483.13;5063239;28;20088;-40
2022/12/26 02:23:03;;;;;;;7.05;4.93;;;;;;;12.34;100.00;96476.81;5057584;28;20466;-44
2022/12/26 02:25:55;;;;;;;6.05;4.13;;;;;;;12.26;100.00;96477.56;5058116;28;20796;-42
2022/12/26 02:28:43;;;;;;;5.13;4.10;;;;;;;12.38;100.00;96472.03;5028301;28;20072;-42
2022/12/26 02:31:17;;;;;;;5.18;4.13;;;;;;;12.33;100.00;96470.69;5053407;28;20083;-40
2022/12/26 02:33:55;;;;;;;5.28;4.32;;;;;;;12.41;100.00;96461.97;5050316;28;20095;-45
2022/12/26 02:36:38;;;;;;;4.43;3.92;;;;;;;12.39;100.00;96465.75;5052877;28;20075;-48
2022/12/26 02:39:18;;;;;;;4.07;3.67;;;;;;;12.37;100.00;96465.91;5052740;28;20072;-40
2022/12/26 02:42:14;;;;;;;3.60;3.30;;;;;;;12.45;100.00;96460.66;5055266;28;20083;-41
2022/12/26 02:47:40;;;;;;;3.50;3.20;;;;;;;12.43;100.00;96467.13;5050109;28;20485;-39
2022/12/26 03:13:15;;;;;;;3.30;3.00;;;;;;;12.78;100.00;96442.34;5061519;28;20080;-39
2022/12/26 03:18:35;;;;;;;3.53;3.20;;;;;;;12.57;100.00;96448.03;5059790;28;20072;-40
2022/12/26 03:21:28;;;;;;;3.42;3.13;;;;;;;12.35;100.00;96452.88;5047897;28;20080;-43
2022/12/26 03:23:57;;;;;;;4.00;3.58;;;;;;;12.26;100.00;96458.25;5051958;28;20079;-41
2022/12/26 03:26:38;;;;;;;3.60;3.30;;;;;;;12.20;100.00;96461.50;5055191;28;20072;-42
2022/12/26 03:31:54;;;;;;;3.72;3.30;;;;;;;12.17;100.00;96467.91;5052715;28;20072;-49
2022/12/26 03:34:23;;;;;;;3.60;3.30;;;;;;;12.16;100.00;96466.28;5059000;28;20068;-41
2022/12/26 03:37:01;;;;;;;3.50;3.20;;;;;;;12.20;100.00;96464.97;5062591;28;20076;-42
2022/12/26 04:19:32;;;;;;;4.20;2.90;;;;;;;12.32;100.00;96471.69;5057887;28;20567;-41
2022/12/26 04:44:33;;;;;;;2.80;2.60;;;;;;;12.31;100.00;96477.94;5059200;28;20072;-40
2022/12/26 04:47:01;;;;;;;2.80;2.60;;;;;;;12.32;100.00;96482.25;5055635;28;20080;-43
2022/12/26 04:52:15;;;;;;;3.17;2.78;;;;;;;12.25;100.00;96475.94;5056071;28;20082;-40
2022/12/26 04:54:44;;;;;;;2.90;2.70;;;;;;;12.31;100.00;96479.75;5058549;28;20114;-43
2022/12/26 04:57:12;;;;;;;2.50;2.40;;;;;;;12.21;100.00;96477.19;5061813;28;20080;-41
2022/12/26 04:59:42;;;;;;;3.70;2.67;;;;;;;12.14;100.00;96478.81;5054240;28;20088;-40
2022/12/26 05:10:29;;;;;;;2.95;2.67;;;;;;;12.17;100.00;96472.38;5056453;28;20068;-42
2022/12/26 05:12:57;;;;;;;2.70;2.50;;;;;;;12.25;100.00;96475.06;5059588;28;20076;-40
2022/12/26 05:15:27;;;;;;;2.80;2.60;;;;;;;12.31;100.00;96475.28;5059967;28;20067;-42
2022/12/26 05:29:09;;;;;;;3.00;2.78;;;;;;;12.05;100.00;96493.78;5032135;28;20076;-41
2022/12/26 05:31:39;;;;;;;3.33;3.03;;;;;;;12.15;100.00;96483.13;5053995;28;20076;-41
2022/12/26 05:34:06;;;;;;;2.90;2.70;;;;;;;12.10;100.00;96493.31;5062919;28;20092;-45
2022/12/26 05:36:38;;;;;;;3.15;2.95;;;;;;;12.09;100.00;96491.66;5053295;28;20482;-45
2022/12/26 05:39:07;;;;;;;3.28;2.53;;;;;;;12.08;100.00;96497.94;5055324;28;20095;-41
2022/12/26 05:41:36;;;;;;;2.92;2.72;;;;;;;12.11;100.00;96510.81;5050882;28;20122;-47
2022/12/26 05:44:05;;;;;;;2.80;2.55;;;;;;;12.10;100.00;96503.88;5058760;28;20558;-43
2022/12/26 05:46:33;;;;;;;2.88;2.67;;;;;;;12.06;100.00;96502.53;5059089;28;20158;-44
2022/12/26 05:49:03;;;;;;;3.00;2.70;;;;;;;11.88;100.00;96500.75;5061058;28;20079;-44
2022/12/26 05:51:32;;;;;;;2.97;2.78;;;;;;;11.87;100.00;96503.50;5056951;28;20091;-47
2022/12/26 05:54:00;;;;;;;3.08;2.78;;;;;;;11.89;100.00;96504.22;5055331;28;20080;-42
2022/12/26 05:56:29;;;;;;;3.10;2.80;;;;;;;11.95;100.00;96514.19;5058901;28;20064;-41
2022/12/26 05:58:58;;;;;;;2.88;2.67;;;;;;;11.92;100.00;96517.13;5053743;28;20080;-49
2022/12/26 06:01:28;;;;;;;2.90;2.70;;;;;;;11.82;100.00;96506.59;5059634;28;20071;-45
2022/12/26 06:03:58;;;;;;;3.33;3.03;;;;;;;11.88;100.00;96510.47;5060835;28;20084;-47
2022/12/26 06:06:28;;;;;;;3.28;3.00;;;;;;;11.91;100.00;96512.00;5052205;28;20076;-41
2022/12/26 06:08:57;;;;;;;3.00;2.80;;;;;;;11.97;100.00;96512.19;5056199;28;20084;-43
2022/12/26 06:11:26;;;;;;;3.30;2.90;;;;;;;12.02;100.00;96509.94;5059155;28;20072;-41
2022/12/26 06:13:55;;;;;;;2.85;2.65;;;;;;;12.03;100.00;96500.19;5054403;28;20072;-41
2022/12/26 06:16:23;;;;;;;2.90;2.70;;;;;;;12.02;100.00;96503.81;5060006;28;20072;-43
2022/12/26 06:18:54;;;;;;;3.00;2.80;;;;;;;12.11;100.00;96489.69;5057458;28;20083;-42
2022/12/26 06:21:24;;;;;;;5.40;3.20;;;;;;;12.07;100.00;96491.81;5057183;28;20068;-43
2022/12/26 06:23:53;;;;;;;3.13;2.83;;;;;;;12.09;100.00;96489.03;5049593;28;20088;-41
2022/12/26 06:26:22;;;;;;;3.22;2.92;;;;;;;12.18;100.00;96492.53;5061276;28;20171;-43
2022/12/26 06:28:50;;;;;;;3.17;2.88;;;;;;;12.19;100.00;96488.94;5048417;28;20502;-41
2022/12/26 06:31:21;;;;;;;2.92;2.72;;;;;;;12.18;100.00;96493.41;5055060;28;20086;-41
2022/12/26 06:33:51;;;;;;;3.00;2.80;;;;;;;12.17;100.00;96501.47;5056098;28;20108;-42
2022/12/26 06:36:20;;;;;;;3.10;2.80;;;;;;;12.13;100.00;96495.66;5058371;28;20059;-42
2022/12/26 06:38:49;;;;;;;3.30;3.00;;;;;;;12.13;100.00;96495.66;5060918;28;20060;-42
2022/12/26 06:41:21;;;;;;;3.30;3.00;;;;;;;12.26;100.00;96501.38;5057482;28;20499;-43
2022/12/26 06:43:49;;;;;;;3.00;2.80;;;;;;;12.35;100.00;96500.47;5052498;28;20068;-44
2022/12/26 06:46:24;;;;;;;2.88;2.67;;;;;;;12.23;100.00;96488.47;5055557;28;20516;-42
2022/12/26 06:48:52;;;;;;;3.13;2.83;;;;;;;12.45;100.00;96484.47;5055673;28;20469;-45
2022/12/26 06:51:22;;;;;;;3.30;3.00;;;;;;;12.43;100.00;96488.28;5057929;28;20075;-43
2022/12/26 06:53:51;;;;;;;3.28;2.97;;;;;;;12.39;100.00;96495.69;5053854;28;20084;-44
2022/12/26 06:56:23;;;;;;;4.70;3.70;;;;;;;12.56;100.00;96489.53;5053898;28;20539;-44
2022/12/26 06:58:53;;;;;;;6.85;4.30;;;;;;;12.56;100.00;96491.34;5058441;28;20076;-45
2022/12/26 07:01:22;;;;;;;5.05;4.07;;;;;;;12.58;100.00;96500.75;5058371;28;20091;-42
2022/12/26 07:03:51;;;;;;;3.50;3.20;;;;;;;12.33;100.00;96491.00;5055307;28;20440;-41
2022/12/26 07:06:23;;;;;;;4.03;3.30;;;;;;;12.50;100.00;96495.44;5052453;28;20063;-42
2022/12/26 07:08:52;;;;;;;6.97;3.75;;;;;;;12.50;100.00;96486.66;5055921;28;20103;-46
2022/12/26 07:11:23;;;;;;;7.45;4.45;;;;;;;12.62;100.00;96495.97;5056449;28;20064;-41
2022/12/26 07:13:52;;;;;;;4.03;3.63;;;;;;;12.79;100.00;96486.31;5053692;28;20085;-45
2022/12/26 07:16:20;;;;;;;3.42;3.13;;;;;;;12.68;100.00;96494.53;5055880;28;20071;-41
2022/12/26 07:18:49;;;;;;;5.07;3.50;;;;;;;12.87;100.00;96478.44;5049667;28;20069;-41
2022/12/26 07:21:17;;;;;;;3.53;3.22;;;;;;;12.75;100.00;96472.56;5053602;28;20439;-49
2022/12/26 07:23:46;;;;;;;4.90;4.13;;;;;;;12.83;100.00;96475.28;5054801;28;20087;-43
2022/12/26 07:26:14;;;;;;;3.60;2.90;;;;;;;12.96;100.00;96481.94;5048834;28;20076;-41
2022/12/26 07:28:44;;;;;;;3.13;2.78;;;;;;;12.98;100.00;96485.28;5055881;28;20095;-39
2022/12/26 07:31:16;;;;;;;2.73;2.53;;;;;;;13.15;100.00;96484.34;5055082;28;20824;-43
2022/12/26 07:33:47;;;;;;;3.30;2.70;;;;;;;13.24;100.00;96490.50;5056954;28;20072;-41
2022/12/26 07:36:15;;;;;;;;;;;;;;;13.35;100.00;96487.59;5063370;28;20080;-39
2022/12/26 07:38:43;;;;;;;2.92;2.70;;;;;;;13.07;100.00;96487.81;5070074;28;19959;-40
2022/12/26 07:43:59;;;;;;;3.22;2.92;;;;;;;13.43;100.00;96495.56;5058084;28;20559;-40
2022/12/26 07:46:28;;;;;;;3.47;3.03;;;;;;;13.66;100.00;96490.47;5058848;28;20080;-40
2022/12/26 07:48:56;;;;;;;32.72;19.90;;;;;;;13.80;100.00;96496.97;5063366;28;20057;-42
2022/12/26 07:51:24;;;;;;;6.20;5.53;;;;;;;13.96;100.00;96496.97;5053725;28;20068;-48
2022/12/26 07:53:53;;;;;;;4.88;4.35;;;;;;;14.12;100.00;96498.78;5060151;28;20084;-45
2022/12/26 07:56:21;;;;;;;4.28;3.50;;;;;;;13.77;100.00;96498.09;5057294;28;20512;-47
2022/12/26 07:58:50;;;;;;;3.80;3.50;;;;;;;13.87;100.00;96507.75;5052867;28;20073;-42
2022/12/26 08:01:20;;;;;;;8.35;6.22;;;;;;;14.20;100.00;96500.63;5059232;28;20075;-40
2022/12/26 08:03:50;;;;;;;7.68;4.65;;;;;;;13.78;100.00;96502.41;5050763;28;20072;-42
2022/12/26 08:06:18;;;;;;;5.47;4.72;;;;;;;14.16;100.00;96501.94;5054047;28;20076;-40
2022/12/26 08:08:47;;;;;;;7.18;4.80;;;;;;;14.20;100.00;96506.75;5057831;28;20610;-42
2022/12/26 08:11:21;;;;;;;3.75;3.15;;;;;;;14.35;100.00;96508.72;5058299;28;20056;-40
2022/12/26 08:13:49;;;;;;;3.60;3.30;;;;;;;14.35;100.00;96512.22;5060347;28;20060;-41
2022/12/26 08:16:20;;;;;;;3.15;2.85;;;;;;;14.45;100.00;96507.56;5058844;28;20573;-43
2022/12/26 08:18:48;;;;;;;3.90;3.20;;;;;;;14.49;100.00;96503.59;5055338;28;20080;-43
2022/12/26 08:21:16;;;;;;;3.50;2.97;;;;;;;14.56;100.00;96495.00;5065282;28;20088;-40
2022/12/26 08:23:47;;;;;;;6.00;5.20;;;;;;;14.57;100.00;96492.16;5061447;28;20091;-41
2022/12/26 08:26:21;;;;;;;3.55;3.25;;;;;;;14.55;100.00;96502.09;5060184;28;20064;-40
2022/12/26 08:28:51;;;;;;;2.97;2.65;;;;;;;14.51;100.00;96492.81;5060965;28;20080;-41
2022/12/26 08:31:21;;;;;;;2.88;2.67;;;;;;;14.70;100.00;96494.31;5053546;28;20372;-40
2022/12/26 08:33:50;;;;;;;3.50;3.00;;;;;;;14.65;100.00;96494.78;5058849;28;20088;-42
2022/12/26 08:36:18;;;;;;;3.42;2.90;;;;;;;14.94;100.00;96488.91;5056148;28;20516;-40
2022/12/26 08:38:46;;;;;;;3.75;3.03;;;;;;;14.74;100.00;96498.25;5051261;28;20075;-40
2022/12/26 08:41:16;;;;;;;3.05;2.75;;;;;;;14.77;100.00;96491.78;5059874;28;20068;-44
2022/12/26 08:43:48;;;;;;;3.13;2.70;;;;;;;14.92;100.00;96490.91;5059809;28;20068;-40
2022/12/26 08:46:38;;;;;;;3.17;2.88;;;;;;;14.86;100.00;96494.22;5050092;28;20076;-39
2022/12/26 08:49:06;;;;;;;3.47;2.80;;;;;;;15.10;100.00;96487.19;5054729;28;20076;-40
2022/12/26 08:51:35;;;;;;;3.15;2.85;;;;;;;15.12;100.00;96485.19;5052402;28;20151;-39
2022/12/26 08:54:03;;;;;;;3.72;2.72;;;;;;;15.29;100.00;96492.09;5060631;28;20072;-42
2022/12/26 08:56:32;;;;;;;3.10;2.80;;;;;;;15.26;100.00;96494.28;5053212;28;20080;-39
2022/12/26 08:59:00;;;;;;;3.20;2.90;;;;;;;15.33;100.00;96497.88;5063965;28;20122;-43
2022/12/26 09:01:30;;;;;;;3.20;2.90;;;;;;;15.34;100.00;96495.03;5055544;28;20158;-43
2022/12/26 09:04:01;;;;;;;3.83;2.95;;;;;;;15.16;100.00;96494.47;5054384;28;20436;-40
2022/12/26 09:06:32;;;;;;;3.00;2.70;;;;;;;15.55;100.00;96486.47;5051241;28;20740;-40
2022/12/26 09:09:01;;;;;;;3.22;2.50;;;;;;;15.61;100.00;96488.44;5053055;28;20072;-40
2022/12/26 09:11:29;;;;;;;3.72;2.60;;;;;;;15.40;100.00;96481.06;5052543;28;20068;-40
2022/12/26 09:14:00;;;;;;;3.10;2.80;;;;;;;16.02;97.28;96480.22;5050704;28;20491;-42
2022/12/26 09:16:30;;;;;;;3.28;2.80;;;;;;;16.04;95.43;96480.06;5058888;28;20075;-41
2022/12/26 09:19:10;;;;;;;3.10;2.50;;;;;;;15.99;99.68;96485.06;5068751;28;20080;-41
2022/12/26 09:21:39;;;;;;;2.85;2.55;;;;;;;16.37;93.33;96472.59;5060783;28;20072;-39
2022/12/26 09:24:12;;;;;;;3.08;2.50;;;;;;;16.55;91.91;96488.22;5055771;28;20069;-41
2022/12/26 09:26:40;;;;;;;4.55;2.50;;;;;;;16.10;99.08;96488.16;5061088;28;20064;-42
2022/12/26 09:29:09;;;;;;;3.10;2.70;;;;;;;16.61;96.46;96488.34;5059492;28;20076;-39
2022/12/26 09:31:38;;;;;;;3.78;2.70;;;;;;;16.61;92.81;96491.00;5055496;28;20078;-40
2022/12/26 09:34:08;;;;;;;3.00;2.50;;;;;;;16.55;90.80;96490.88;5059708;28;20064;-41
2022/12/26 09:36:37;;;;;;;2.80;2.60;;;;;;;16.52;95.91;96488.63;5063117;28;20441;-41
2022/12/26 09:39:06;;;;;;;3.03;2.50;;;;;;;17.08;85.46;96481.88;5052420;28;20523;-39
2022/12/26 09:41:49;;;;;;;3.10;2.80;;;;;;;16.86;85.70;96482.78;5056702;28;20080;-39
2022/12/26 09:44:21;;;;;;;3.17;2.60;;;;;;;16.97;86.72;96485.00;5049083;28;20071;-40
2022/12/26 09:46:55;;;;;;;3.60;2.80;;;;;;;16.85;85.43;96487.28;5055960;28;20060;-39
2022/12/26 09:49:28;;;;;;;4.40;2.88;;;;;;;17.23;83.49;96475.69;5051085;28;20064;-39
2022/12/26 09:51:59;;;;;;;2.80;2.60;;;;;;;17.38;80.31;96484.53;5054980;28;20603;-40
2022/12/26 09:54:37;;;;;;;2.60;2.40;;;;;;;17.11;85.00;96479.88;5052345;28;20080;-39
2022/12/26 09:57:08;;;;;;;2.65;2.40;;;;;;;17.99;76.80;96465.50;5050482;28;20056;-39
2022/12/26 09:59:46;;;;;;;2.53;2.30;;;;;;;18.14;74.27;96466.25;5050896;28;20465;-41
2022/12/26 10:02:18;;;;;;;3.88;2.40;;;;;;;17.93;76.65;96469.75;5053839;28;20072;-40
2022/12/26 10:04:48;;;;;;;2.70;2.20;;;;;;;18.34;73.35;96469.09;5049995;28;20461;-40
2022/12/26 10:07:22;;;;;;;2.75;2.25;;;;;;;18.31;70.68;96471.34;5055513;28;20064;-40
2022/12/26 10:09:56;;;;;;;3.10;2.38;;;;;;;18.73;65.72;96457.91;5055955;28;20079;-42
2022/12/26 10:12:35;;;;;;;3.58;2.00;;;;;;;19.07;65.14;96450.09;5052578;28;20071;-39
2022/12/26 10:15:13;;;;;;;2.35;2.00;;;;;;;19.25;65.12;96450.38;5048743;28;20672;-39
2022/12/26 10:17:46;;;;;;;4.45;2.92;;;;;;;19.58;65.14;96441.63;5054552;28;20083;-41
2022/12/26 10:20:22;;;;;;;3.70;2.58;;;;;;;19.63;64.70;96441.88;5051399;28;20083;-40
2022/12/26 10:23:20;;;;;;;4.75;2.58;;;;;;;19.85;65.56;96440.69;5055162;28;20080;-41
2022/12/26 10:25:52;;;;;;;2.88;2.15;;;;;;;19.96;63.68;96444.66;5052997;28;20072;-41
2022/12/26 10:28:27;;;;;;;3.75;2.80;;;;;;;19.96;64.39;96441.13;5051659;28;20076;-40
2022/12/26 10:30:58;;;;;;;4.68;3.03;;;;;;;20.04;64.92;96443.63;5055870;28;21088;-45
2022/12/26 10:33:34;;;;;;;4.05;2.35;;;;;;;20.01;64.46;96450.19;5051072;28;20076;-40
2022/12/26 10:36:04;;;;;;;6.18;3.90;;;;;;;20.10;66.51;96445.47;5053750;28;20080;-42
2022/12/26 10:38:37;;;;;;;4.10;2.60;;;;;;;20.12;66.17;96444.22;5057836;28;20076;-40
2022/12/26 10:41:14;;;;;;;5.28;3.90;;;;;;;20.19;65.98;96438.06;5053513;28;20080;-41
2022/12/26 10:43:44;;;;;;;3.92;3.28;;;;;;;20.20;69.15;96437.88;5050768;28;20076;-40
2022/12/26 10:46:28;;;;;;;3.67;3.15;;;;;;;20.12;70.24;96438.88;5050599;28;20099;-45
2022/12/26 10:48:56;;;;;;;4.10;2.70;;;;;;;20.24;73.06;96443.63;5051206;28;20087;-43
2022/12/26 10:51:26;;;;;;;3.95;2.33;;;;;;;20.31;69.55;96428.38;5055050;28;20505;-42
2022/12/26 10:53:55;;;;;;;2.72;2.20;;;;;;;20.50;69.79;96437.44;5050129;28;20076;-47
2022/12/26 10:56:25;;;;;;;3.38;2.20;;;;;;;20.21;66.30;96434.16;5050571;28;20080;-40
2022/12/26 10:59:00;;;;;;;3.13;2.30;;;;;;;20.48;66.12;96437.66;5054373;28;20091;-42
2022/12/26 11:01:36;;;;;;;2.38;1.90;;;;;;;20.22;64.31;96430.44;5050748;28;20076;-42
2022/12/26 11:04:16;;;;;;;3.22;2.00;;;;;;;19.23;62.64;96432.88;5053505;28;20088;-40
2022/12/26 11:07:08;;;;;;;2.65;2.00;;;;;;;19.15;65.08;96439.22;5054740;28;20072;-40
2022/12/26 11:09:39;;;;;;;2.70;1.80;;;;;;;19.24;71.49;96438.03;5048990;28;20092;-41
2022/12/26 11:12:19;;;;;;;1.60;1.50;;;;;;;18.81;67.15;96445.41;5054002;28;20073;-42
2022/12/26 11:14:47;;;;;;;2.00;1.90;;;;;;;19.23;67.42;96448.91;5059977;28;20079;-40
2022/12/26 11:17:25;;;;;;;4.95;1.90;;;;;;;18.97;73.67;96445.09;5055236;28;20091;-45
2022/12/26 11:20:10;;;;;;;2.35;1.80;;;;;;;18.87;71.98;96455.31;5052488;28;20107;-41
2022/12/26 11:22:40;;;;;;;2.47;1.83;;;;;;;18.59;69.87;96450.81;5054279;28;20103;-42
2022/12/26 11:25:23;;;;;;;2.40;1.90;;;;;;;18.86;77.39;96446.47;5057165;28;20079;-38
2022/12/26 11:27:53;;;;;;;2.20;2.00;;;;;;;18.86;78.42;96454.50;5049627;28;20080;-39
2022/12/26 11:30:28;;;;;;;2.40;2.00;;;;;;;18.46;78.65;96454.19;5054036;28;20084;-38
2022/12/26 11:33:22;;;;;;;2.80;1.90;;;;;;;18.42;75.46;96447.59;5061115;28;20084;-38
2022/12/26 11:35:54;;;;;;;2.90;2.10;;;;;;;18.35;70.34;96451.25;5057220;28;20088;-38
2022/12/26 11:38:35;;;;;;;3.38;2.30;;;;;;;18.23;76.53;96442.91;5052843;28;20080;-41
2022/12/26 11:41:38;;;;;;;2.50;1.80;;;;;;;18.25;80.07;96455.06;5058675;28;20485;-40
2022/12/26 11:44:18;;;;;;;3.15;2.10;;;;;;;18.39;80.23;96463.19;5050997;28;20077;-39
2022/12/26 11:46:49;;;;;;;2.85;2.30;;;;;;;18.30;81.00;96462.47;5058328;28;20084;-40
2022/12/26 11:49:21;;;;;;;2.70;2.08;;;;;;;18.34;82.18;96474.44;5057301;28;20087;-39
2022/12/26 11:51:51;;;;;;;2.80;2.00;;;;;;;18.21;82.29;96464.47;5051640;28;20080;-42
2022/12/26 11:54:30;;;;;;;3.65;2.30;;;;;;;18.20;86.80;96467.31;5059128;28;20072;-42
2022/12/26 11:57:13;;;;;;;2.10;1.92;;;;;;;18.16;84.93;96463.38;5055868;28;20076;-40
2022/12/26 11:59:41;;;;;;;2.85;2.10;;;;;;;17.87;92.46;96473.19;5059094;28;20076;-38
2022/12/26 12:02:19;;;;;;;2.45;2.05;;;;;;;17.94;99.20;96476.75;5055024;28;20500;-39
2022/12/26 12:04:49;;;;;;;3.35;1.75;;;;;;;17.57;100.00;96488.41;5055909;28;20703;-38
2022/12/26 12:07:30;;;;;;;2.30;2.00;;;;;;;17.50;100.00;96498.19;5057046;28;20461;-39
2022/12/26 12:10:05;;;;;;;3.25;2.15;;;;;;;17.20;100.00;96519.53;5060202;28;20082;-49
2022/12/26 12:12:38;;;;;;;8.85;1.90;;;;;;;16.77;100.00;96532.66;5054920;28;20087;-42
2022/12/26 12:15:12;;;;;;;2.47;2.10;;;;;;;16.22;100.00;96539.09;5058648;28;20087;-44
2022/12/26 12:17:47;;;;;;;3.25;2.55;;;;;;;16.40;100.00;96529.97;5056813;28;20146;-41
2022/12/26 12:20:24;;;;;;;4.70;2.63;;;;;;;16.06;100.00;96547.19;5055234;28;20091;-39
2022/12/26 12:23:07;;;;;;;2.83;2.38;;;;;;;15.86;100.00;96555.63;5052899;28;20076;-43
2022/12/26 12:25:43;;;;;;;5.78;3.13;;;;;;;15.84;100.00;96564.78;5056666;28;20640;-47
2022/12/26 12:28:27;;;;;;;2.90;2.40;;;;;;;15.60;100.00;96568.38;5051459;28;20081;-42
2022/12/26 12:31:02;;;;;;;5.05;2.45;;;;;;;15.60;100.00;96577.16;5057528;28;20081;-40
2022/12/26 12:33:40;;;;;;;6.05;3.35;;;;;;;15.43;100.00;96572.91;5055986;28;20085;-40
2022/12/26 12:36:11;;;;;;;3.78;2.92;;;;;;;15.34;100.00;96582.72;5053276;28;20095;-40
2022/12/26 12:38:49;;;;;;;3.05;2.72;;;;;;;15.23;100.00;96582.28;5053922;28;20079;-38
2022/12/26 12:41:38;;;;;;;5.03;3.15;;;;;;;15.59;100.00;96577.34;5052898;28;20349;-42
2022/12/26 12:44:13;;;;;;;5.85;4.10;;;;;;;15.55;100.00;96571.53;5055401;28;20040;-40
2022/12/26 12:46:49;;;;;;;4.47;3.40;;;;;;;15.47;100.00;96576.06;5052866;28;20565;-47
2022/12/26 12:49:32;;;;;;;6.10;3.88;;;;;;;15.56;100.00;96575.84;5063837;28;20049;-39
2022/12/26 12:52:09;;;;;;;7.50;4.70;;;;;;;15.98;100.00;96579.16;5058394;28;20073;-39
2022/12/26 12:55:22;;;;;;;5.72;4.43;;;;;;;16.02;100.00;96564.50;5053349;28;20564;-39
2022/12/26 12:57:54;;;;;;;7.35;4.95;;;;;;;15.87;100.00;96567.09;5030916;28;20083;-50
2022/12/26 13:00:25;;;;;;;7.25;4.53;;;;;;;15.96;100.00;96570.53;5050358;28;20080;-41
2022/12/26 13:02:55;;;;;;;5.50;4.18;;;;;;;15.78;100.00;96563.63;5052134;28;20080;-40
2022/12/26 13:05:35;;;;;;;6.20;4.13;;;;;;;16.01;100.00;96568.19;5057081;28;20087;-40
2022/12/26 13:08:07;;;;;;;7.88;4.53;;;;;;;16.08;100.00;96571.78;5054835;28;20088;-42
2022/12/26 13:10:38;;;;;;;8.10;4.80;;;;;;;16.18;100.00;96583.03;5053455;28;20090;-39
2022/12/26 13:13:13;;;;;;;7.55;5.07;;;;;;;15.71;100.00;96596.41;5049479;28;20077;-41
2022/12/26 13:15:44;;;;;;;6.63;4.57;;;;;;;15.73;100.00;96597.09;5050473;28;20076;-44
2022/12/26 13:18:16;;;;;;;5.18;4.50;;;;;;;15.82;100.00;96604.00;5057517;28;20084;-38
2022/12/26 13:20:48;;;;;;;5.65;4.38;;;;;;;15.64;100.00;96606.88;5060470;28;20496;-39
2022/12/26 13:26:11;;;;;;;5.65;4.18;;;;;;;16.14;100.00;96603.03;5052706;28;20536;-42
2022/12/26 13:28:48;;;;;;;7.50;4.65;;;;;;;16.07;100.00;96612.69;5055355;28;20491;-45
2022/12/26 13:31:17;;;;;;;6.13;4.22;;;;;;;15.78;100.00;96605.34;5057270;28;20476;-38
2022/12/26 13:33:45;;;;;;;6.18;4.78;;;;;;;15.97;100.00;96607.59;5056032;28;20052;-38
2022/12/26 13:36:36;;;;;;;6.78;4.40;;;;;;;16.03;100.00;96600.75;5052251;28;20076;-39
2022/12/26 13:39:42;;;;;;;6.15;4.80;;;;;;;15.57;100.00;96603.25;5052267;28;20091;-43
2022/12/26 13:45:46;;;;;;;6.25;4.30;;;;;;;15.48;100.00;96610.44;5050051;28;20099;-41
2022/12/26 13:49:07;;;;;;;5.53;4.35;;;;;;;15.95;100.00;96614.91;5051066;28;20107;-43
2022/12/26 13:51:45;;;;;;;;;;;;;;;15.54;100.00;96619.56;5054640;28;20071;-40
2022/12/26 13:54:16;;;;;;;7.63;4.55;;;;;;;15.89;100.00;96619.09;5049225;28;20055;-40
2022/12/26 13:57:14;;;;;;;6.13;4.30;;;;;;;15.19;100.00;96626.97;5050942;28;20077;-45
2022/12/26 13:59:51;;;;;;;8.45;4.22;;;;;;;15.02;100.00;96627.97;5055683;28;20080;-39
2022/12/26 14:02:48;;;;;;;4.97;4.07;;;;;;;14.69;100.00;96625.34;5053852;28;20468;-40